createdAt,value
2019-05-19T00:01:41.068Z,19.74
2019-05-19T00:04:12.026Z,19.71
2019-05-19T00:06:43.485Z,19.68
2019-05-19T00:09:16.621Z,19.65
2019-05-19T00:11:47.130Z,19.62
2019-05-19T00:14:18.095Z,19.61
2019-05-19T00:16:49.071Z,19.58
2019-05-19T00:19:26.576Z,19.56
2019-05-19T00:21:52.766Z,19.55
2019-05-19T00:24:23.780Z,19.52
2019-05-19T00:26:54.756Z,19.49
2019-05-19T00:29:25.738Z,19.48
2019-05-19T00:31:56.670Z,19.44
2019-05-19T00:34:27.663Z,19.44
2019-05-19T00:36:58.643Z,19.41
2019-05-19T00:39:29.740Z,19.37
2019-05-19T00:42:00.708Z,19.35
2019-05-19T00:44:31.704Z,19.32
2019-05-19T00:47:02.673Z,19.31
2019-05-19T00:49:41.515Z,19.27
2019-05-19T00:52:06.312Z,19.26
2019-05-19T00:54:37.307Z,19.21
2019-05-19T00:57:08.350Z,19.21
2019-05-19T00:59:39.479Z,19.19
2019-05-19T01:02:10.473Z,19.15
2019-05-19T01:04:41.441Z,19.14
2019-05-19T01:07:12.454Z,19.11
2019-05-19T01:09:44.702Z,19.07
2019-05-19T01:12:15.694Z,19.04
2019-05-19T01:14:46.684Z,19.02
2019-05-19T01:17:18.933Z,19.01
2019-05-19T01:19:56.012Z,19.00
2019-05-19T01:22:22.665Z,18.99
2019-05-19T01:24:53.668Z,18.96
2019-05-19T01:27:24.717Z,18.94
2019-05-19T01:29:55.676Z,18.92
2019-05-19T01:32:26.655Z,18.90
2019-05-19T01:34:57.628Z,18.88
2019-05-19T01:37:28.635Z,18.85
2019-05-19T01:40:00.698Z,18.83
2019-05-19T01:42:31.679Z,18.79
2019-05-19T01:45:02.732Z,18.79
2019-05-19T01:47:33.693Z,18.77
2019-05-19T01:50:17.548Z,18.76
2019-05-19T01:52:39.341Z,18.73
2019-05-19T01:55:10.649Z,18.72
2019-05-19T01:57:41.614Z,18.69
2019-05-19T02:00:13.650Z,18.66
2019-05-19T02:02:44.641Z,18.66
2019-05-19T02:05:15.824Z,18.63
2019-05-19T02:07:46.828Z,18.62
2019-05-19T02:10:17.897Z,18.59
2019-05-19T02:12:48.913Z,18.58
2019-05-19T02:15:21.168Z,18.56
2019-05-19T02:17:52.132Z,18.53
2019-05-19T02:20:32.618Z,18.51
2019-05-19T02:22:57.032Z,18.50
2019-05-19T02:25:27.998Z,18.50
2019-05-19T02:27:59.338Z,18.50
2019-05-19T02:30:30.311Z,18.49
2019-05-19T02:33:01.352Z,18.48
2019-05-19T02:35:32.335Z,18.47
2019-05-19T02:38:03.309Z,18.46
2019-05-19T02:40:34.947Z,18.45
2019-05-19T02:43:05.927Z,18.45
2019-05-19T02:45:37.661Z,18.43
2019-05-19T02:48:08.702Z,18.41
2019-05-19T02:50:51.462Z,18.41
2019-05-19T02:53:12.904Z,18.39
2019-05-19T02:55:45.144Z,18.36
2019-05-19T02:58:16.382Z,18.35
2019-05-19T03:00:47.377Z,18.32
2019-05-19T03:03:18.343Z,18.29
2019-05-19T03:05:49.354Z,18.25
2019-05-19T03:08:20.316Z,18.25
2019-05-19T03:10:51.288Z,18.24
2019-05-19T03:13:22.264Z,18.22
2019-05-19T03:15:53.225Z,18.21
2019-05-19T03:18:24.213Z,18.20
2019-05-19T03:21:09.880Z,18.18
2019-05-19T03:23:27.842Z,18.18
2019-05-19T03:25:58.803Z,18.17
2019-05-19T03:28:29.787Z,18.16
2019-05-19T03:31:18.644Z,18.15
2019-05-19T03:33:51.238Z,18.14
2019-05-19T03:36:22.202Z,18.11
2019-05-19T03:38:53.177Z,18.09
2019-05-19T03:41:25.153Z,18.08
2019-05-19T03:43:56.127Z,18.08
2019-05-19T03:46:27.096Z,18.08
2019-05-19T03:48:58.715Z,18.07
2019-05-19T03:51:32.040Z,18.06
2019-05-19T03:54:03.123Z,18.06
2019-05-19T03:56:34.101Z,18.03
2019-05-19T03:59:05.090Z,18.02
2019-05-19T04:01:36.075Z,18.01
2019-05-19T04:04:07.072Z,18.01
2019-05-19T04:06:38.049Z,18.00
2019-05-19T04:09:09.043Z,17.99
2019-05-19T04:11:40.055Z,17.98
2019-05-19T04:14:11.024Z,17.99
2019-05-19T04:16:41.997Z,18.00
2019-05-19T04:19:12.990Z,18.00
2019-05-19T04:21:48.828Z,18.02
2019-05-19T04:24:17.086Z,18.02
2019-05-19T04:26:48.051Z,18.04
2019-05-19T04:29:19.107Z,18.06
2019-05-19T04:31:50.117Z,18.08
2019-05-19T04:34:21.097Z,18.10
2019-05-19T04:36:52.122Z,18.11
2019-05-19T04:39:23.112Z,18.15
2019-05-19T04:41:54.091Z,18.16
2019-05-19T04:44:26.367Z,18.20
2019-05-19T04:46:57.332Z,18.21
2019-05-19T04:49:28.353Z,18.23
2019-05-19T04:52:06.624Z,18.26
2019-05-19T04:54:32.002Z,18.30
2019-05-19T04:57:02.992Z,18.34
2019-05-19T04:59:33.967Z,18.39
2019-05-19T05:02:04.950Z,18.43
2019-05-19T05:04:35.962Z,18.47
2019-05-19T05:07:06.958Z,18.51
2019-05-19T05:09:39.246Z,18.56
2019-05-19T05:12:10.231Z,18.58
2019-05-19T05:14:41.223Z,18.64
2019-05-19T05:17:12.200Z,18.69
2019-05-19T05:19:43.198Z,18.76
2019-05-19T05:22:21.826Z,18.83
2019-05-19T05:24:46.867Z,18.88
2019-05-19T05:27:17.835Z,18.97
2019-05-19T05:29:48.826Z,19.04
2019-05-19T05:32:19.818Z,19.12
2019-05-19T05:34:50.799Z,19.17
2019-05-19T05:37:21.788Z,19.23
2019-05-19T05:39:53.431Z,19.29
2019-05-19T05:42:24.479Z,19.34
2019-05-19T05:44:55.531Z,19.38
2019-05-19T05:47:26.525Z,19.43
2019-05-19T05:49:57.514Z,19.48
2019-05-19T05:52:37.934Z,19.52
2019-05-19T05:55:01.169Z,19.56
2019-05-19T05:57:32.165Z,19.60
2019-05-19T06:00:03.694Z,19.63
2019-05-19T06:02:34.704Z,19.66
2019-05-19T06:05:06.691Z,19.70
2019-05-19T06:07:38.769Z,19.75
2019-05-19T06:10:10.853Z,19.78
2019-05-19T06:12:41.818Z,19.83
2019-05-19T06:15:12.944Z,19.89
2019-05-19T06:17:44.100Z,19.95
2019-05-19T06:20:15.140Z,20.03
2019-05-19T06:22:56.028Z,20.09
2019-05-19T06:25:18.808Z,20.16
2019-05-19T06:27:49.845Z,20.21
2019-05-19T06:30:20.903Z,20.25
2019-05-19T06:32:53.606Z,20.29
2019-05-19T06:35:25.215Z,20.33
2019-05-19T06:37:56.318Z,20.39
2019-05-19T06:40:27.279Z,20.47
2019-05-19T06:42:58.292Z,20.54
2019-05-19T06:45:29.324Z,20.62
2019-05-19T06:48:00.285Z,20.69
2019-05-19T06:50:31.267Z,20.75
2019-05-19T06:53:13.561Z,20.83
2019-05-19T06:55:34.975Z,20.91
2019-05-19T06:58:05.974Z,20.99
2019-05-19T07:00:37.967Z,21.09
2019-05-19T07:03:08.970Z,21.18
2019-05-19T07:05:39.938Z,21.27
2019-05-19T07:08:10.925Z,21.31
2019-05-19T07:10:41.897Z,21.34
2019-05-19T07:13:12.861Z,21.39
2019-05-19T07:15:43.845Z,21.44
2019-05-19T07:18:14.823Z,21.49
2019-05-19T07:20:45.801Z,21.57
2019-05-19T07:23:36.590Z,21.65
2019-05-19T07:26:07.573Z,21.75
2019-05-19T07:28:38.595Z,21.86
2019-05-19T07:31:09.568Z,21.97
2019-05-19T07:33:44.615Z,22.07
2019-05-19T07:36:15.563Z,22.13
2019-05-19T07:38:49.809Z,22.17
2019-05-19T07:41:20.782Z,22.23
2019-05-19T07:43:52.142Z,22.31
2019-05-19T07:46:23.094Z,22.41
2019-05-19T07:48:54.082Z,22.50
2019-05-19T07:51:25.065Z,22.59
2019-05-19T07:53:56.108Z,22.66
2019-05-19T07:56:28.733Z,22.73
2019-05-19T07:59:00.673Z,22.78
2019-05-19T08:01:32.435Z,22.82
2019-05-19T08:04:03.394Z,22.87
2019-05-19T08:06:34.730Z,22.93
2019-05-19T08:09:06.919Z,22.97
2019-05-19T08:11:41.908Z,23.01
2019-05-19T08:14:15.639Z,23.04
2019-05-19T08:16:46.677Z,23.13
2019-05-19T08:19:19.300Z,23.23
2019-05-19T08:21:51.199Z,23.34
2019-05-19T08:24:22.201Z,23.41
2019-05-19T08:26:53.241Z,23.48
2019-05-19T08:29:24.275Z,23.54
2019-05-19T08:31:55.293Z,23.58
2019-05-19T08:34:26.355Z,23.64
2019-05-19T08:36:57.351Z,23.75
2019-05-19T08:39:28.357Z,23.86
2019-05-19T08:42:04.711Z,23.95
2019-05-19T08:44:38.118Z,24.02
2019-05-19T08:47:09.146Z,24.07
2019-05-19T08:49:44.291Z,24.17
2019-05-19T08:52:15.262Z,24.22
2019-05-19T08:54:46.259Z,24.27
2019-05-19T08:57:17.409Z,24.31
2019-05-19T08:59:48.579Z,24.37
2019-05-19T09:02:19.556Z,24.45
2019-05-19T09:04:50.547Z,24.56
2019-05-19T09:07:21.515Z,24.64
2019-05-19T09:09:52.512Z,24.72
2019-05-19T09:12:23.502Z,24.80
2019-05-19T09:14:54.493Z,24.90
2019-05-19T09:17:25.444Z,25.01
2019-05-19T09:19:57.185Z,25.11
2019-05-19T09:22:28.187Z,25.19
2019-05-19T09:24:59.178Z,25.29
2019-05-19T09:27:30.150Z,25.39
2019-05-19T09:30:01.588Z,25.46
2019-05-19T09:32:32.644Z,25.49
2019-05-19T09:35:03.998Z,25.52
2019-05-19T09:37:35.354Z,25.56
2019-05-19T09:40:13.691Z,25.58
2019-05-19T09:42:44.680Z,25.63
2019-05-19T09:45:15.911Z,25.68
2019-05-19T09:47:46.910Z,25.73
2019-05-19T09:50:18.976Z,25.81
2019-05-19T09:52:51.007Z,25.91
2019-05-19T09:55:21.981Z,25.94
2019-05-19T09:57:52.961Z,25.94
2019-05-19T10:00:24.131Z,25.98
2019-05-19T10:02:55.102Z,25.99
2019-05-19T10:05:26.057Z,25.96
2019-05-19T10:07:57.505Z,25.93
2019-05-19T10:10:39.279Z,25.89
2019-05-19T10:13:10.260Z,25.87
2019-05-19T10:15:41.229Z,25.80
2019-05-19T10:18:12.223Z,25.76
2019-05-19T10:20:43.182Z,25.73
2019-05-19T10:23:14.161Z,25.71
2019-05-19T10:25:45.118Z,25.74
2019-05-19T10:28:16.108Z,25.83
2019-05-19T10:30:47.133Z,25.95
2019-05-19T10:33:18.102Z,26.06
2019-05-19T10:35:49.085Z,26.16
2019-05-19T10:38:20.062Z,26.22
2019-05-19T10:40:51.013Z,26.28
2019-05-19T10:43:21.994Z,26.36
2019-05-19T10:46:03.270Z,26.43
2019-05-19T10:48:34.223Z,26.52
2019-05-19T10:51:05.241Z,26.58
2019-05-19T10:53:36.187Z,26.65
2019-05-19T10:56:07.209Z,26.73
2019-05-19T10:58:38.356Z,26.79
2019-05-19T11:01:09.387Z,26.86
2019-05-19T11:03:40.453Z,26.93
2019-05-19T11:06:11.419Z,27.02
2019-05-19T11:08:42.380Z,27.04
2019-05-19T11:11:13.351Z,27.06
2019-05-19T11:13:44.337Z,27.05
2019-05-19T11:16:15.293Z,27.04
2019-05-19T11:18:46.295Z,27.07
2019-05-19T11:21:17.315Z,27.13
2019-05-19T11:23:49.050Z,27.17
2019-05-19T11:26:20.048Z,27.25
2019-05-19T11:28:51.000Z,27.31
2019-05-19T11:31:21.964Z,27.37
2019-05-19T11:33:53.310Z,27.42
2019-05-19T11:36:24.267Z,27.48
2019-05-19T11:38:55.225Z,27.51
2019-05-19T11:41:26.198Z,27.55
2019-05-19T11:43:57.964Z,27.59
2019-05-19T11:46:29.036Z,27.67
2019-05-19T11:49:00.092Z,27.74
2019-05-19T11:51:31.186Z,27.82
2019-05-19T11:54:02.247Z,27.86
2019-05-19T11:56:33.339Z,27.92
2019-05-19T11:59:04.384Z,27.98
2019-05-19T12:01:35.487Z,28.02
2019-05-19T12:04:06.565Z,28.09
2019-05-19T12:06:40.008Z,28.11
2019-05-19T12:09:11.384Z,28.07
2019-05-19T12:11:42.434Z,28.03
2019-05-19T12:14:13.503Z,28.00
2019-05-19T12:16:44.582Z,28.04
2019-05-19T12:19:15.661Z,28.12
2019-05-19T12:21:46.733Z,28.20
2019-05-19T12:24:17.831Z,28.28
2019-05-19T12:26:48.945Z,28.33
2019-05-19T12:29:20.518Z,28.43
2019-05-19T12:31:52.646Z,28.53
2019-05-19T12:34:24.807Z,28.63
2019-05-19T12:36:55.871Z,28.72
2019-05-19T12:39:26.955Z,28.83
2019-05-19T12:41:58.013Z,28.91
2019-05-19T12:44:29.085Z,28.98
2019-05-19T12:47:00.629Z,28.99
2019-05-19T12:49:31.723Z,28.98
2019-05-19T12:52:02.787Z,28.91
2019-05-19T12:54:33.925Z,28.81
2019-05-19T12:57:05.065Z,28.77
2019-05-19T12:59:36.157Z,28.76
2019-05-19T13:02:07.215Z,28.76
2019-05-19T13:04:38.505Z,28.77
2019-05-19T13:07:09.755Z,28.77
2019-05-19T13:09:40.827Z,28.75
2019-05-19T13:12:11.897Z,28.70
2019-05-19T13:14:42.960Z,28.64
2019-05-19T13:17:14.021Z,28.56
2019-05-19T13:19:45.106Z,28.53
2019-05-19T13:22:16.160Z,28.53
2019-05-19T13:24:47.233Z,28.57
2019-05-19T13:27:18.425Z,28.63
2019-05-19T13:29:49.475Z,28.68
2019-05-19T13:32:20.525Z,28.75
2019-05-19T13:34:51.596Z,28.83
2019-05-19T13:37:22.652Z,28.90
2019-05-19T13:39:54.091Z,28.98
2019-05-19T13:42:25.144Z,29.04
2019-05-19T13:44:56.209Z,29.11
2019-05-19T13:47:27.257Z,29.17
2019-05-19T13:49:58.327Z,29.16
2019-05-19T13:52:29.383Z,29.13
2019-05-19T13:55:00.453Z,29.13
2019-05-19T13:57:31.513Z,29.13
2019-05-19T14:00:02.657Z,29.18
2019-05-19T14:02:33.737Z,29.22
2019-05-19T14:05:05.342Z,29.26
2019-05-19T14:07:37.493Z,29.24
2019-05-19T14:10:09.197Z,29.19
2019-05-19T14:12:40.255Z,29.15
2019-05-19T14:15:11.621Z,29.13
2019-05-19T14:17:42.684Z,29.12
2019-05-19T14:20:14.583Z,29.13
2019-05-19T14:22:45.650Z,29.09
2019-05-19T14:25:17.400Z,29.09
2019-05-19T14:27:48.456Z,29.07
2019-05-19T14:30:20.493Z,29.04
2019-05-19T14:32:51.553Z,29.01
2019-05-19T14:35:22.624Z,28.94
2019-05-19T14:37:53.724Z,28.88
2019-05-19T14:40:24.773Z,28.82
2019-05-19T14:43:00.166Z,28.76
2019-05-19T14:45:31.328Z,28.70
2019-05-19T14:48:02.414Z,28.66
2019-05-19T14:50:33.482Z,28.61
2019-05-19T14:53:04.549Z,28.56
2019-05-19T14:55:35.638Z,28.51
2019-05-19T14:58:06.710Z,28.48
2019-05-19T15:00:38.827Z,28.45
2019-05-19T15:03:10.687Z,28.42
2019-05-19T15:05:41.757Z,28.40
2019-05-19T15:08:13.481Z,28.38
2019-05-19T15:10:45.489Z,28.35
2019-05-19T15:13:17.311Z,28.33
2019-05-19T15:15:48.369Z,28.31
2019-05-19T15:18:19.436Z,28.28
2019-05-19T15:20:50.527Z,28.23
2019-05-19T15:23:21.607Z,28.22
2019-05-19T15:25:52.685Z,28.20
2019-05-19T15:28:23.769Z,28.20
2019-05-19T15:30:54.826Z,28.18
2019-05-19T15:33:25.923Z,28.15
2019-05-19T15:35:57.449Z,28.15
2019-05-19T15:38:28.507Z,28.13
2019-05-19T15:40:59.598Z,28.10
2019-05-19T15:43:30.653Z,28.08
2019-05-19T15:46:01.716Z,28.08
2019-05-19T15:48:32.798Z,28.08
2019-05-19T15:51:03.866Z,28.07
2019-05-19T15:53:34.939Z,28.06
2019-05-19T15:56:06.003Z,28.05
2019-05-19T15:58:37.752Z,28.05
2019-05-19T16:01:08.812Z,28.06
2019-05-19T16:03:39.883Z,28.05
2019-05-19T16:06:10.969Z,28.05
2019-05-19T16:08:42.027Z,28.06
2019-05-19T16:11:13.095Z,28.06
2019-05-19T16:13:44.193Z,28.10
2019-05-19T16:16:15.327Z,28.11
2019-05-19T16:18:46.427Z,28.11
2019-05-19T16:21:17.567Z,28.11
2019-05-19T16:23:48.654Z,28.11
2019-05-19T16:26:19.752Z,28.09
2019-05-19T16:28:50.810Z,28.08
2019-05-19T16:31:21.909Z,28.07
2019-05-19T16:33:52.970Z,28.06
2019-05-19T16:36:24.029Z,28.04
2019-05-19T16:38:55.853Z,28.03
2019-05-19T16:41:26.984Z,28.03
2019-05-19T16:43:58.034Z,28.00
2019-05-19T16:46:29.129Z,27.98
2019-05-19T16:49:01.584Z,27.96
2019-05-19T16:51:32.699Z,27.95
2019-05-19T16:54:05.381Z,27.94
2019-05-19T16:56:36.511Z,27.91
2019-05-19T16:59:07.583Z,27.90
2019-05-19T17:01:38.702Z,27.87
2019-05-19T17:04:09.805Z,27.86
2019-05-19T17:06:40.870Z,27.85
2019-05-19T17:09:11.945Z,27.83
2019-05-19T17:11:43.036Z,27.80
2019-05-19T17:14:14.317Z,27.75
2019-05-19T17:16:45.452Z,27.72
2019-05-19T17:19:16.508Z,27.69
2019-05-19T17:21:48.665Z,27.66
2019-05-19T17:27:26.566Z,27.62
2019-05-19T17:30:00.271Z,27.58
2019-05-19T17:32:32.445Z,27.50
2019-05-19T17:35:04.397Z,27.47
2019-05-19T17:37:39.349Z,27.45
2019-05-19T17:40:11.712Z,27.41
2019-05-19T17:42:44.578Z,27.38
2019-05-19T17:45:16.502Z,27.35
2019-05-19T17:47:47.637Z,27.31
2019-05-19T17:50:31.641Z,27.27
2019-05-19T17:53:03.866Z,27.24
2019-05-19T17:55:36.472Z,27.18
2019-05-19T17:58:08.625Z,27.14
2019-05-19T18:00:44.267Z,27.09
2019-05-19T18:03:15.473Z,27.06
2019-05-19T18:05:46.597Z,27.01
2019-05-19T18:08:17.704Z,26.98
2019-05-19T18:10:49.849Z,26.95
2019-05-19T18:13:31.819Z,26.93
2019-05-19T18:16:14.367Z,26.89
2019-05-19T18:18:50.558Z,26.86
2019-05-19T18:21:21.630Z,26.81
2019-05-19T18:23:52.713Z,26.77
2019-05-19T18:26:29.476Z,26.74
2019-05-19T18:29:00.534Z,26.70
2019-05-19T18:31:31.639Z,26.66
2019-05-19T18:34:03.466Z,26.61
2019-05-19T18:36:34.545Z,26.58
2019-05-19T18:39:07.066Z,26.54
2019-05-19T18:41:38.683Z,26.51
2019-05-19T18:44:09.796Z,26.48
2019-05-19T18:46:40.898Z,26.43
2019-05-19T18:49:11.973Z,26.40
2019-05-19T18:51:44.103Z,26.35
2019-05-19T18:54:15.167Z,26.31
2019-05-19T18:57:07.557Z,26.27
2019-05-19T19:00:24.636Z,26.23
2019-05-19T19:02:51.792Z,26.17
2019-05-19T19:05:23.935Z,26.05
2019-05-19T19:07:55.483Z,25.99
2019-05-19T19:10:26.581Z,25.95
2019-05-19T19:12:57.725Z,25.91
2019-05-19T19:15:28.807Z,25.84
2019-05-19T19:17:59.886Z,25.80
2019-05-19T19:20:34.401Z,25.75
2019-05-19T19:23:05.051Z,25.70
2019-05-19T19:25:36.002Z,25.59
2019-05-19T19:28:22.084Z,25.57
2019-05-19T19:31:17.872Z,25.53
2019-05-19T19:33:49.601Z,25.45
2019-05-19T19:36:20.655Z,25.39
2019-05-19T19:38:54.205Z,25.35
2019-05-19T19:41:25.275Z,25.33
2019-05-19T19:43:57.254Z,25.30
2019-05-19T19:46:28.408Z,25.29
2019-05-19T19:48:59.460Z,25.27
2019-05-19T19:51:30.529Z,25.25
2019-05-19T19:54:01.924Z,25.22
2019-05-19T19:56:33.147Z,25.20
2019-05-19T19:59:04.232Z,25.19
2019-05-19T20:01:35.292Z,25.17
2019-05-19T20:04:06.348Z,25.16
2019-05-19T20:06:37.418Z,25.14
2019-05-19T20:09:08.538Z,25.13
2019-05-19T20:11:39.683Z,25.11
2019-05-19T20:14:15.323Z,25.10
2019-05-19T20:16:47.483Z,25.09
2019-05-19T20:19:18.543Z,25.06
2019-05-19T20:21:49.589Z,25.01
2019-05-19T20:24:20.642Z,24.98
2019-05-19T20:26:51.863Z,24.95
2019-05-19T20:29:23.222Z,24.93
2019-05-19T20:31:54.299Z,24.93
2019-05-19T20:34:25.359Z,24.93
2019-05-19T20:36:56.428Z,24.93
2019-05-19T20:39:27.488Z,24.93
2019-05-19T20:41:58.561Z,24.91
2019-05-19T20:44:29.636Z,24.89
2019-05-19T20:47:00.705Z,24.87
2019-05-19T20:49:31.761Z,24.86
2019-05-19T20:52:03.298Z,24.85
2019-05-19T20:54:34.352Z,24.83
2019-05-19T20:57:05.413Z,24.82
2019-05-19T20:59:36.473Z,24.81
2019-05-19T21:02:07.536Z,24.80
2019-05-19T21:04:38.652Z,24.82
2019-05-19T21:07:09.693Z,24.82
2019-05-19T21:09:40.807Z,24.81
2019-05-19T21:12:11.840Z,24.79
2019-05-19T21:14:43.956Z,24.78
2019-05-19T21:17:15.029Z,24.76
2019-05-19T21:19:46.090Z,24.75
2019-05-19T21:22:17.154Z,24.75
2019-05-19T21:24:48.243Z,24.74
2019-05-19T21:27:19.301Z,24.72
2019-05-19T21:29:50.413Z,24.71
2019-05-19T21:32:21.478Z,24.68
2019-05-19T21:34:52.544Z,24.67
2019-05-19T21:37:23.696Z,24.65
2019-05-19T21:39:54.750Z,24.63
2019-05-19T21:42:26.771Z,24.62
2019-05-19T21:44:57.835Z,24.61
2019-05-19T21:47:28.978Z,24.58
2019-05-19T21:50:00.036Z,24.54
2019-05-19T21:52:31.122Z,24.52
2019-05-19T21:55:03.827Z,24.49
2019-05-19T21:57:34.891Z,24.46
2019-05-19T22:00:09.713Z,24.43
2019-05-19T22:02:40.774Z,24.40
2019-05-19T22:05:12.087Z,24.35
2019-05-19T22:07:50.617Z,24.30
2019-05-19T22:10:21.936Z,24.28
2019-05-19T22:12:53.020Z,24.23
2019-05-19T22:15:24.271Z,24.18
2019-05-19T22:17:56.292Z,24.16
2019-05-19T22:20:27.393Z,24.14
2019-05-19T22:22:58.449Z,24.10
2019-05-19T22:25:29.504Z,24.08
2019-05-19T22:28:00.600Z,24.06
2019-05-19T22:30:31.659Z,24.03
2019-05-19T22:33:04.179Z,24.02
2019-05-19T22:35:35.245Z,23.99
2019-05-19T22:38:09.322Z,23.97
2019-05-19T22:40:39.179Z,23.95
2019-05-19T22:43:10.216Z,23.92
2019-05-19T22:45:41.276Z,23.90
2019-05-19T22:48:12.355Z,23.87
2019-05-19T22:50:45.275Z,23.84
2019-05-19T22:53:16.342Z,23.82
2019-05-19T22:55:47.408Z,23.81
2019-05-19T22:58:18.479Z,23.78
2019-05-19T23:00:49.545Z,23.75
2019-05-19T23:03:20.587Z,23.74
2019-05-19T23:05:51.649Z,23.73
2019-05-19T23:08:23.286Z,23.71
2019-05-19T23:10:54.341Z,23.69
2019-05-19T23:13:25.411Z,23.66
2019-05-19T23:15:56.483Z,23.63
2019-05-19T23:18:27.558Z,23.61
2019-05-19T23:20:59.589Z,23.58
2019-05-19T23:23:30.659Z,23.56
2019-05-19T23:26:01.752Z,23.52
2019-05-19T23:28:32.821Z,23.48
2019-05-19T23:31:03.907Z,23.45
2019-05-19T23:33:35.000Z,23.43
2019-05-19T23:36:06.071Z,23.42
2019-05-19T23:38:37.188Z,23.39
2019-05-19T23:41:09.245Z,23.38
2019-05-19T23:43:40.329Z,23.37
2019-05-19T23:46:11.430Z,23.33
2019-05-19T23:48:43.578Z,23.30
2019-05-19T23:51:14.710Z,23.27
2019-05-19T23:53:45.786Z,23.23
2019-05-19T23:56:16.851Z,23.19
2019-05-19T23:58:52.509Z,23.17
